Dysart, Iowa
Current Conditions -  °F | °C
As of 1:55 PM on Thursday 30 Oct 2014 (Local Time) from KVTI Reporting Station
Clear Clear  
Wind Chill: 58°   Ceiling: Unl
Heat Index: 58°   Visibility: 10mi
Dew Point: 36°   Wind: 3mph
Humidity: 44%   Direction: 180°S
Pressure: 30.03"   Gusts: NA
Location:  42.17°N, 92.31°W
Report Text: KVTI 301855Z AUTO 18003KT 10SM CLR 14/02 A3003 RMK AO2 T01430021
Loading
Personal Weather Stations






























Interactive Weather Map
Tropical Storm Tracking
New forecast layout! Learn more

10-Day Weather Forecast

Advertisements
Track Severe Weather on mobile